createdAt,value
2019-02-23T00:01:14.856Z,10.05
2019-02-23T00:03:43.816Z,10.58
2019-02-23T00:06:13.456Z,10.85
2019-02-23T00:08:42.485Z,9.75
2019-02-23T00:11:11.904Z,10.20
2019-02-23T00:13:40.886Z,9.95
2019-02-23T00:16:10.040Z,10.20
2019-02-23T00:18:39.856Z,10.30
2019-02-23T00:21:09.129Z,10.68
2019-02-23T00:23:38.407Z,10.28
2019-02-23T00:26:07.468Z,10.50
2019-02-23T00:28:37.048Z,10.23
2019-02-23T00:31:06.019Z,10.05
2019-02-23T00:33:35.023Z,10.10
2019-02-23T00:36:04.322Z,10.80
2019-02-23T00:38:33.678Z,11.60
2019-02-23T00:41:03.139Z,10.32
2019-02-23T00:43:32.080Z,10.18
2019-02-23T00:46:01.076Z,11.43
2019-02-23T00:48:30.109Z,10.58
2019-02-23T00:50:59.186Z,10.70
2019-02-23T00:53:28.225Z,11.10
2019-02-23T00:55:57.612Z,12.00
2019-02-23T00:58:26.876Z,11.30
2019-02-23T01:00:56.176Z,12.55
2019-02-23T01:03:25.233Z,12.23
2019-02-23T01:05:54.557Z,11.57
2019-02-23T01:08:23.594Z,11.97
2019-02-23T01:10:58.028Z,11.60
2019-02-23T01:13:23.413Z,11.50
2019-02-23T01:15:52.784Z,12.03
2019-02-23T01:18:22.121Z,11.48
2019-02-23T01:20:51.548Z,12.13
2019-02-23T01:23:20.913Z,12.10
2019-02-23T01:25:50.320Z,13.00
2019-02-23T01:28:20.436Z,12.00
2019-02-23T01:30:49.344Z,12.10
2019-02-23T01:33:18.316Z,11.90
2019-02-23T01:35:47.766Z,11.80
2019-02-23T01:38:17.133Z,11.38
2019-02-23T01:40:46.501Z,11.45
2019-02-23T01:43:16.248Z,11.28
2019-02-23T01:45:45.604Z,11.75
2019-02-23T01:48:14.579Z,12.37
2019-02-23T01:50:43.963Z,11.60
2019-02-23T01:53:12.932Z,12.47
2019-02-23T01:55:41.963Z,12.77
2019-02-23T01:58:11.591Z,13.15
2019-02-23T02:00:40.839Z,12.70
2019-02-23T02:03:10.352Z,13.78
2019-02-23T02:05:39.654Z,14.90
2019-02-23T02:08:08.728Z,14.00
2019-02-23T02:10:38.398Z,14.38
2019-02-23T02:13:07.479Z,14.23
2019-02-23T02:15:36.892Z,14.87
2019-02-23T02:18:05.930Z,16.00
2019-02-23T02:20:35.000Z,14.80
2019-02-23T02:23:04.057Z,14.40
2019-02-23T02:25:33.105Z,15.60
2019-02-23T02:28:02.772Z,15.10
2019-02-23T02:30:32.185Z,16.40
2019-02-23T02:33:01.591Z,16.32
2019-02-23T02:35:30.646Z,16.40
2019-02-23T02:38:00.327Z,15.03
2019-02-23T02:40:29.383Z,15.55
2019-02-23T02:42:58.779Z,16.27
2019-02-23T02:45:28.201Z,15.98
2019-02-23T02:47:57.938Z,16.73
2019-02-23T02:50:26.981Z,17.45
2019-02-23T02:52:56.698Z,17.07
2019-02-23T02:55:25.744Z,17.92
2019-02-23T02:57:55.123Z,18.12
2019-02-23T03:00:24.485Z,18.77
2019-02-23T03:02:53.545Z,17.40
2019-02-23T03:05:22.892Z,16.87
2019-02-23T03:07:51.941Z,16.90
2019-02-23T03:10:21.305Z,17.35
2019-02-23T03:12:50.367Z,17.32
2019-02-23T03:15:19.976Z,16.60
2019-02-23T03:17:49.047Z,16.70
2019-02-23T03:20:18.676Z,17.00
2019-02-23T03:22:47.778Z,16.73
2019-02-23T03:25:17.201Z,16.95
2019-02-23T03:27:46.675Z,17.80
2019-02-23T03:30:16.085Z,17.45
2019-02-23T03:32:45.556Z,18.50
2019-02-23T03:35:14.986Z,17.10
2019-02-23T03:37:44.419Z,17.05
2019-02-23T03:40:13.476Z,18.02
2019-02-23T03:42:42.808Z,17.75
2019-02-23T03:45:12.178Z,18.10
2019-02-23T03:47:41.508Z,17.80
2019-02-23T03:50:10.890Z,17.75
2019-02-23T03:52:40.239Z,17.70
2019-02-23T03:55:09.308Z,17.90
2019-02-23T03:57:38.632Z,17.82
2019-02-23T04:00:08.800Z,17.80
2019-02-23T04:02:37.834Z,17.98
2019-02-23T04:05:07.252Z,18.07
2019-02-23T04:07:36.330Z,17.50
2019-02-23T04:10:05.995Z,17.05
2019-02-23T04:12:35.060Z,17.53
2019-02-23T04:15:04.247Z,18.00
2019-02-23T04:17:33.892Z,17.40
2019-02-23T04:20:02.979Z,17.70
2019-02-23T04:22:32.399Z,18.25
2019-02-23T04:25:02.454Z,18.30
2019-02-23T04:27:31.811Z,17.83
2019-02-23T04:30:01.183Z,18.07
2019-02-23T04:32:30.243Z,18.48
2019-02-23T04:34:59.679Z,18.02
2019-02-23T04:37:28.747Z,16.83
2019-02-23T04:39:58.407Z,18.45
2019-02-23T04:42:27.703Z,18.42
2019-02-23T04:44:56.786Z,18.40
2019-02-23T04:47:25.878Z,18.62
2019-02-23T04:49:56.761Z,18.40
2019-02-23T04:52:26.727Z,18.15
2019-02-23T04:54:56.669Z,19.75
2019-02-23T04:57:26.077Z,17.65
2019-02-23T04:59:55.770Z,17.77
2019-02-23T05:02:25.080Z,18.75
2019-02-23T05:04:54.418Z,18.57
2019-02-23T05:07:23.780Z,18.07
2019-02-23T05:09:53.488Z,18.75
2019-02-23T05:12:22.968Z,18.42
2019-02-23T05:14:52.044Z,19.07
2019-02-23T05:17:21.691Z,19.10
2019-02-23T05:19:51.400Z,19.60
2019-02-23T05:22:20.810Z,19.70
2019-02-23T05:24:53.297Z,18.60
2019-02-23T05:27:21.660Z,19.45
2019-02-23T05:29:51.087Z,18.82
2019-02-23T05:32:20.135Z,19.60
2019-02-23T05:34:50.192Z,18.20
2019-02-23T05:37:19.572Z,18.42
2019-02-23T05:39:48.896Z,17.73
2019-02-23T05:42:18.347Z,17.90
2019-02-23T05:44:48.288Z,17.52
2019-02-23T05:47:17.714Z,17.00
2019-02-23T05:49:46.788Z,17.25
2019-02-23T05:52:15.848Z,17.42
2019-02-23T05:54:44.900Z,16.87
2019-02-23T05:57:13.949Z,16.97
2019-02-23T05:59:43.459Z,16.30
2019-02-23T06:02:12.791Z,17.10
2019-02-23T06:04:41.849Z,16.02
2019-02-23T06:07:11.157Z,16.85
2019-02-23T06:09:40.872Z,15.68
2019-02-23T06:12:10.479Z,15.98
2019-02-23T06:14:39.783Z,16.00
2019-02-23T06:17:09.215Z,15.60
2019-02-23T06:19:38.928Z,14.60
2019-02-23T06:22:08.055Z,15.23
2019-02-23T06:24:38.075Z,15.23
2019-02-23T06:27:07.547Z,13.65
2019-02-23T06:29:37.251Z,14.40
2019-02-23T06:32:06.307Z,13.68
2019-02-23T06:34:35.696Z,13.78
2019-02-23T06:37:04.768Z,13.80
2019-02-23T06:39:33.870Z,14.63
2019-02-23T06:42:03.204Z,13.10
2019-02-23T06:44:32.453Z,13.55
2019-02-23T06:47:01.803Z,12.55
2019-02-23T06:49:32.103Z,12.68
2019-02-23T06:52:04.176Z,11.85
2019-02-23T06:54:31.947Z,11.93
2019-02-23T06:57:01.284Z,12.00
2019-02-23T06:59:30.703Z,12.37
2019-02-23T07:02:00.159Z,12.65
2019-02-23T07:04:29.563Z,11.97
2019-02-23T07:06:58.682Z,12.85
2019-02-23T07:09:27.746Z,12.28
2019-02-23T07:11:57.171Z,12.30
2019-02-23T07:14:26.211Z,12.63
2019-02-23T07:16:55.504Z,12.30
2019-02-23T07:19:44.017Z,11.90
2019-02-23T07:22:15.793Z,11.05
2019-02-23T07:24:44.844Z,12.23
2019-02-23T07:27:14.242Z,11.90
2019-02-23T07:29:43.923Z,12.05
2019-02-23T07:32:13.356Z,11.13
2019-02-23T07:34:42.763Z,12.10
2019-02-23T07:37:11.824Z,11.20
2019-02-23T07:39:41.429Z,11.80
2019-02-23T07:42:10.856Z,11.60
2019-02-23T07:44:40.252Z,10.40
2019-02-23T07:47:10.257Z,9.83
2019-02-23T07:49:39.551Z,11.08
2019-02-23T07:52:09.294Z,9.78
2019-02-23T07:54:38.354Z,8.70
2019-02-23T07:57:07.760Z,10.13
2019-02-23T07:59:37.179Z,9.50
2019-02-23T08:02:06.597Z,9.10
2019-02-23T08:04:35.960Z,9.30
2019-02-23T08:07:05.387Z,9.08
2019-02-23T08:09:34.403Z,9.58
2019-02-23T08:12:03.763Z,8.40
2019-02-23T08:14:33.162Z,8.75
2019-02-23T08:17:02.202Z,8.33
2019-02-23T08:19:31.498Z,7.55
2019-02-23T08:22:00.853Z,7.83
2019-02-23T08:24:30.152Z,8.10
2019-02-23T08:26:59.577Z,7.90
2019-02-23T08:29:28.604Z,8.03
2019-02-23T08:31:57.970Z,7.25
2019-02-23T08:34:27.671Z,7.25
2019-02-23T08:36:56.789Z,7.30
2019-02-23T08:39:25.890Z,6.78
2019-02-23T08:41:55.269Z,7.50
2019-02-23T08:44:24.855Z,6.73
2019-02-23T08:46:53.915Z,6.55
2019-02-23T08:49:22.940Z,6.70
2019-02-23T08:51:52.652Z,6.30
2019-02-23T08:54:22.383Z,6.58
2019-02-23T08:56:51.797Z,6.62
2019-02-23T08:59:20.897Z,5.80
2019-02-23T09:01:49.972Z,5.90
2019-02-23T09:04:19.391Z,5.78
2019-02-23T09:06:48.435Z,5.40
2019-02-23T09:09:17.664Z,5.33
2019-02-23T09:11:46.719Z,5.13
2019-02-23T09:14:16.618Z,5.00
2019-02-23T09:16:46.607Z,4.60
2019-02-23T09:19:15.970Z,4.65
2019-02-23T09:21:45.021Z,4.42
2019-02-23T09:24:14.384Z,4.12
2019-02-23T09:26:43.768Z,4.70
2019-02-23T09:29:13.383Z,4.78
2019-02-23T09:31:42.999Z,4.42
2019-02-23T09:34:12.313Z,4.42
2019-02-23T09:36:41.730Z,4.90
2019-02-23T09:39:11.080Z,3.80
2019-02-23T09:41:40.409Z,3.73
2019-02-23T09:44:09.756Z,3.50
2019-02-23T09:46:39.638Z,3.65
2019-02-23T09:49:08.577Z,3.30
2019-02-23T09:51:37.631Z,3.50
2019-02-23T09:54:06.990Z,3.60
2019-02-23T09:56:36.056Z,3.70
2019-02-23T09:59:05.695Z,3.85
2019-02-23T10:01:35.088Z,3.70
2019-02-23T10:04:04.398Z,3.30
2019-02-23T10:06:33.288Z,3.70
2019-02-23T10:09:02.714Z,3.10
2019-02-23T10:11:32.080Z,3.20
2019-02-23T10:14:01.182Z,3.50
2019-02-23T10:16:30.223Z,3.50
2019-02-23T10:18:59.618Z,3.70
2019-02-23T10:21:29.284Z,3.27
2019-02-23T10:23:58.705Z,3.80
2019-02-23T10:26:27.731Z,3.33
2019-02-23T10:28:57.137Z,3.65
2019-02-23T10:31:26.511Z,3.37
2019-02-23T10:33:55.907Z,3.27
2019-02-23T10:36:24.923Z,3.90
2019-02-23T10:38:54.334Z,3.43
2019-02-23T10:41:23.346Z,2.90
2019-02-23T10:43:52.668Z,3.00
2019-02-23T10:46:21.732Z,2.95
2019-02-23T10:48:51.142Z,2.77
2019-02-23T10:51:20.226Z,2.90
2019-02-23T10:53:49.591Z,2.58
2019-02-23T10:56:18.960Z,2.50
2019-02-23T10:58:48.005Z,2.80
2019-02-23T11:01:17.111Z,2.80
2019-02-23T11:03:46.795Z,2.80
2019-02-23T11:06:15.843Z,2.80
2019-02-23T11:08:45.572Z,3.60
2019-02-23T11:11:14.795Z,3.50
2019-02-23T11:13:44.476Z,3.30
2019-02-23T11:16:13.723Z,3.10
2019-02-23T11:18:43.367Z,3.37
2019-02-23T11:21:12.687Z,3.80
2019-02-23T11:23:44.457Z,3.20
2019-02-23T11:26:12.808Z,2.90
2019-02-23T11:28:42.108Z,3.60
2019-02-23T11:31:11.256Z,3.20
2019-02-23T11:33:40.285Z,3.22
2019-02-23T11:36:09.614Z,3.60
2019-02-23T11:38:39.028Z,3.67
2019-02-23T11:41:08.062Z,3.40
2019-02-23T11:43:37.427Z,3.47
2019-02-23T11:46:06.811Z,3.00
2019-02-23T11:48:36.096Z,3.50
2019-02-23T11:51:05.387Z,3.17
2019-02-23T11:53:34.819Z,3.15
2019-02-23T11:56:04.203Z,3.87
2019-02-23T11:58:33.298Z,3.40
2019-02-23T12:01:02.669Z,3.20
2019-02-23T12:03:32.301Z,3.33
2019-02-23T12:06:01.699Z,3.83
2019-02-23T12:08:31.456Z,3.20
2019-02-23T12:11:01.125Z,3.30
2019-02-23T12:13:30.587Z,3.20
2019-02-23T12:16:00.044Z,3.10
2019-02-23T12:18:29.453Z,2.90
2019-02-23T12:20:58.855Z,3.10
2019-02-23T12:23:27.917Z,3.20
2019-02-23T12:25:57.860Z,3.65
2019-02-23T12:28:27.313Z,3.40
2019-02-23T12:30:56.426Z,3.72
2019-02-23T12:33:25.564Z,3.72
2019-02-23T12:35:54.642Z,3.50
2019-02-23T12:38:24.031Z,3.72
2019-02-23T12:40:53.436Z,3.30
2019-02-23T12:43:22.727Z,3.30
2019-02-23T12:45:51.770Z,3.40
2019-02-23T12:48:21.149Z,3.60
2019-02-23T12:50:50.178Z,3.45
2019-02-23T12:53:19.830Z,2.92
2019-02-23T12:55:49.251Z,3.10
2019-02-23T12:58:18.305Z,3.10
2019-02-23T13:00:48.041Z,3.00
2019-02-23T13:03:17.764Z,3.12
2019-02-23T13:05:47.123Z,3.30
2019-02-23T13:08:16.564Z,2.90
2019-02-23T13:10:45.985Z,3.00
2019-02-23T13:14:11.684Z,3.33
2019-02-23T13:16:58.762Z,3.40
2019-02-23T13:20:11.985Z,3.50
2019-02-23T13:23:02.831Z,3.00
2019-02-23T13:26:11.163Z,3.45
2019-02-23T13:29:01.320Z,3.20
2019-02-23T13:32:05.003Z,3.58
2019-02-23T13:35:15.061Z,3.60
2019-02-23T13:38:32.408Z,3.33
2019-02-23T13:41:16.089Z,3.60
2019-02-23T13:44:12.480Z,3.25
2019-02-23T13:47:28.583Z,2.80
2019-02-23T13:50:19.272Z,3.40
2019-02-23T13:53:29.229Z,3.40
2019-02-23T13:56:48.522Z,3.33
2019-02-23T13:59:49.466Z,3.08
2019-02-23T14:02:47.002Z,2.92
2019-02-23T14:05:30.222Z,3.10
2019-02-23T14:08:40.590Z,2.87
2019-02-23T14:11:35.895Z,2.95
2019-02-23T14:14:16.463Z,3.05
2019-02-23T14:16:56.801Z,3.50
2019-02-23T14:19:53.768Z,3.20
2019-02-23T14:23:05.868Z,3.27
2019-02-23T14:25:56.969Z,2.92
2019-02-23T14:28:57.579Z,3.60
2019-02-23T14:32:13.803Z,3.37
2019-02-23T14:35:26.098Z,3.20
2019-02-23T14:38:26.039Z,4.20
2019-02-23T14:41:26.010Z,3.85
2019-02-23T14:44:38.239Z,4.60
2019-02-23T14:47:41.762Z,4.60
2019-02-23T14:50:56.450Z,3.85
2019-02-23T14:53:41.377Z,4.08
2019-02-23T14:56:54.541Z,4.70
2019-02-23T15:00:03.779Z,4.30
2019-02-23T15:03:22.820Z,4.20
2019-02-23T15:06:25.808Z,4.00
2019-02-23T15:09:29.943Z,4.08
2019-02-23T15:12:30.642Z,3.60
2019-02-23T15:15:38.284Z,3.37
2019-02-23T15:18:20.989Z,3.40
2019-02-23T15:21:21.912Z,3.20
2019-02-23T15:24:31.747Z,3.30
2019-02-23T15:27:47.856Z,3.60
2019-02-23T15:30:29.766Z,3.60
2019-02-23T15:33:39.266Z,3.50
2019-02-23T15:37:01.570Z,3.67
2019-02-23T15:40:13.959Z,3.00
2019-02-23T15:43:21.050Z,3.00
2019-02-23T15:46:24.255Z,3.05
2019-02-23T15:49:30.342Z,3.37
2019-02-23T15:52:00.589Z,3.50
2019-02-23T15:54:30.323Z,3.70
2019-02-23T15:56:59.655Z,2.95
2019-02-23T15:59:29.027Z,3.35
2019-02-23T16:01:58.425Z,3.20
2019-02-23T16:04:27.480Z,3.10
2019-02-23T16:06:56.821Z,3.58
2019-02-23T16:09:26.494Z,3.52
2019-02-23T16:11:55.829Z,6.37
2019-02-23T16:14:25.205Z,11.95
2019-02-23T16:16:54.268Z,5.15
2019-02-23T16:19:23.618Z,2.90
2019-02-23T16:22:12.198Z,3.17
2019-02-23T16:24:41.229Z,3.75
2019-02-23T16:27:10.530Z,4.20
2019-02-23T16:29:39.601Z,3.70
2019-02-23T16:32:08.697Z,4.00
2019-02-23T16:34:37.799Z,3.03
2019-02-23T16:37:07.152Z,3.15
2019-02-23T16:39:36.200Z,3.60
2019-02-23T16:42:05.570Z,3.50
2019-02-23T16:44:35.085Z,3.33
2019-02-23T16:47:04.127Z,3.52
2019-02-23T16:49:33.464Z,2.75
2019-02-23T16:52:02.566Z,3.15
2019-02-23T16:54:31.624Z,3.40
2019-02-23T16:57:00.997Z,3.37
2019-02-23T16:59:30.056Z,3.80
2019-02-23T17:01:59.479Z,3.20
2019-02-23T17:04:29.302Z,3.00
2019-02-23T17:06:58.722Z,2.72
2019-02-23T17:09:28.044Z,2.00
2019-02-23T17:11:57.907Z,1.70
2019-02-23T17:14:27.031Z,2.13
2019-02-23T17:16:56.396Z,1.60
2019-02-23T17:19:25.448Z,1.43
2019-02-23T17:21:55.053Z,1.63
2019-02-23T17:24:24.475Z,1.50
2019-02-23T17:26:54.225Z,1.53
2019-02-23T17:29:23.875Z,1.60
2019-02-23T17:31:53.783Z,1.60
2019-02-23T17:34:23.237Z,1.33
2019-02-23T17:36:52.891Z,1.53
2019-02-23T17:39:22.634Z,2.07
2019-02-23T17:41:52.011Z,1.40
2019-02-23T17:44:21.891Z,1.80
2019-02-23T17:46:51.215Z,1.93
2019-02-23T17:49:20.306Z,1.93
2019-02-23T17:51:49.648Z,1.83
2019-02-23T17:54:19.528Z,1.43
2019-02-23T17:56:49.136Z,1.57
2019-02-23T17:59:18.265Z,2.07
2019-02-23T18:01:47.341Z,1.40
2019-02-23T18:04:16.777Z,1.57
2019-02-23T18:06:46.159Z,2.00
2019-02-23T18:09:15.232Z,1.50
2019-02-23T18:11:44.539Z,1.40
2019-02-23T18:14:13.583Z,1.77
2019-02-23T18:16:42.821Z,2.20
2019-02-23T18:19:11.879Z,1.33
2019-02-23T18:21:40.919Z,1.40
2019-02-23T18:24:09.963Z,1.67
2019-02-23T18:26:39.947Z,1.50
2019-02-23T18:29:09.343Z,1.63
2019-02-23T18:31:38.377Z,1.37
2019-02-23T18:34:07.754Z,1.40
2019-02-23T18:36:37.415Z,1.47
2019-02-23T18:39:06.591Z,1.30
2019-02-23T18:41:35.622Z,1.50
2019-02-23T18:44:04.701Z,1.73
2019-02-23T18:46:33.744Z,1.40
2019-02-23T18:49:03.086Z,1.80
2019-02-23T18:51:32.128Z,1.60
2019-02-23T18:54:01.550Z,1.83
2019-02-23T18:56:30.961Z,1.60
2019-02-23T18:59:00.639Z,1.43
2019-02-23T19:01:30.615Z,1.20
2019-02-23T19:04:00.068Z,1.40
2019-02-23T19:06:29.179Z,1.70
2019-02-23T19:08:58.511Z,1.23
2019-02-23T19:11:27.924Z,1.80
2019-02-23T19:13:56.959Z,1.40
2019-02-23T19:16:26.308Z,1.63
2019-02-23T19:18:56.019Z,1.40
2019-02-23T19:21:25.747Z,1.50
2019-02-23T19:23:54.883Z,1.40
2019-02-23T19:26:24.284Z,1.50
2019-02-23T19:28:53.316Z,2.30
2019-02-23T19:31:22.719Z,1.40
2019-02-23T19:33:52.328Z,1.77
2019-02-23T19:36:21.680Z,2.17
2019-02-23T19:38:51.025Z,2.20
2019-02-23T19:41:20.509Z,2.30
2019-02-23T19:43:49.962Z,2.37
2019-02-23T19:46:19.024Z,3.40
2019-02-23T19:48:48.342Z,2.20
2019-02-23T19:51:17.732Z,3.85
2019-02-23T19:53:47.300Z,3.80
2019-02-23T19:56:16.705Z,3.20
2019-02-23T19:58:45.732Z,2.95
2019-02-23T20:01:15.187Z,2.58
2019-02-23T20:03:44.876Z,2.30
2019-02-23T20:06:13.956Z,2.10
2019-02-23T20:08:42.905Z,2.35
2019-02-23T20:11:11.940Z,2.42
2019-02-23T20:13:40.986Z,2.17
2019-02-23T20:16:10.032Z,2.00
2019-02-23T20:18:39.717Z,1.90
2019-02-23T20:21:08.776Z,1.85
2019-02-23T20:23:38.173Z,2.30
2019-02-23T20:26:07.259Z,2.17
2019-02-23T20:28:36.931Z,2.15
2019-02-23T20:31:06.350Z,3.35
2019-02-23T20:33:36.343Z,2.50
2019-02-23T20:36:05.455Z,3.10
2019-02-23T20:38:34.953Z,3.40
2019-02-23T20:41:03.991Z,2.50
2019-02-23T20:43:33.327Z,2.17
2019-02-23T20:46:02.325Z,1.87
2019-02-23T20:48:32.039Z,2.00
2019-02-23T20:51:01.464Z,2.27
2019-02-23T20:53:30.490Z,2.02
2019-02-23T20:55:59.842Z,2.00
2019-02-23T20:58:29.816Z,1.92
2019-02-23T21:00:58.955Z,1.62
2019-02-23T21:03:28.079Z,2.00
2019-02-23T21:05:57.128Z,1.70
2019-02-23T21:08:26.272Z,1.80
2019-02-23T21:10:55.722Z,2.20
2019-02-23T21:13:24.776Z,1.95
2019-02-23T21:15:53.898Z,1.80
2019-02-23T21:18:22.947Z,2.30
2019-02-23T21:20:52.306Z,2.10
2019-02-23T21:23:21.371Z,1.60
2019-02-23T21:25:51.289Z,2.60
2019-02-23T21:28:20.381Z,2.37
2019-02-23T21:30:49.755Z,2.75
2019-02-23T21:33:19.518Z,2.75
2019-02-23T21:35:48.922Z,2.90
2019-02-23T21:38:18.371Z,2.45
2019-02-23T21:40:47.405Z,2.50
2019-02-23T21:43:16.720Z,2.40
2019-02-23T21:45:46.199Z,2.20
2019-02-23T21:48:15.704Z,2.22
2019-02-23T21:50:45.153Z,1.90
2019-02-23T21:53:14.630Z,2.00
2019-02-23T21:55:43.710Z,1.80
2019-02-23T21:58:13.168Z,1.90
2019-02-23T22:00:42.232Z,1.72
2019-02-23T22:03:11.650Z,2.10
2019-02-23T22:05:40.656Z,2.00
2019-02-23T22:08:10.062Z,2.00
2019-02-23T22:10:39.759Z,1.80
2019-02-23T22:13:09.144Z,1.80
2019-02-23T22:15:38.154Z,1.70
2019-02-23T22:18:07.627Z,2.10
2019-02-23T22:20:36.675Z,2.00
2019-02-23T22:23:05.776Z,2.30
2019-02-23T22:25:34.901Z,2.12
2019-02-23T22:28:04.520Z,2.20
2019-02-23T22:30:33.926Z,2.20
2019-02-23T22:33:02.993Z,2.30
2019-02-23T22:35:32.032Z,1.82
2019-02-23T22:38:01.375Z,2.20
2019-02-23T22:40:30.791Z,2.10
2019-02-23T22:43:00.261Z,2.40
2019-02-23T22:45:29.307Z,2.40
2019-02-23T22:47:58.353Z,2.55
2019-02-23T22:50:28.020Z,2.37
2019-02-23T22:52:57.088Z,2.00
2019-02-23T22:55:26.155Z,2.20
2019-02-23T22:57:55.131Z,1.70
2019-02-23T23:00:28.459Z,2.10
2019-02-23T23:02:58.114Z,2.40
2019-02-23T23:05:27.147Z,2.25
2019-02-23T23:07:56.211Z,2.37
2019-02-23T23:10:25.886Z,2.60
2019-02-23T23:12:54.901Z,2.30
2019-02-23T23:15:24.303Z,2.03
2019-02-23T23:17:53.696Z,2.37
2019-02-23T23:20:23.088Z,2.40
2019-02-23T23:22:52.796Z,2.70
2019-02-23T23:25:21.871Z,2.35
2019-02-23T23:27:51.545Z,2.40
2019-02-23T23:30:21.215Z,2.22
2019-02-23T23:32:50.662Z,2.30
2019-02-23T23:35:20.018Z,2.30
2019-02-23T23:37:49.797Z,2.00
2019-02-23T23:40:18.828Z,2.45
2019-02-23T23:42:48.212Z,2.30
2019-02-23T23:45:17.281Z,2.20
2019-02-23T23:47:46.604Z,2.10
2019-02-23T23:50:16.317Z,2.25
2019-02-23T23:52:45.715Z,2.20
2019-02-23T23:55:15.732Z,2.60
2019-02-23T23:57:45.083Z,2.22
